createdAt,value
2023-04-18T07:02:29.132Z,13.84
2023-04-18T07:05:31.905Z,14.03
2023-04-18T07:08:34.601Z,14.20
2023-04-18T07:11:37.280Z,14.12
2023-04-18T07:14:39.704Z,14.34
2023-04-18T07:17:43.846Z,14.61
2023-04-18T07:20:46.042Z,15.40
2023-04-18T07:28:09.048Z,16.58
2023-04-18T07:31:14.434Z,15.96
2023-04-18T07:34:18.432Z,15.86
2023-04-18T07:37:21.514Z,16.02
2023-04-18T07:40:24.010Z,15.48
2023-04-18T07:43:26.931Z,15.73
2023-04-18T07:46:29.588Z,15.84
2023-04-18T07:49:33.714Z,16.12
2023-04-18T07:52:37.359Z,16.59
2023-04-18T07:55:41.023Z,16.77
2023-04-18T07:58:43.439Z,16.22
2023-04-18T08:01:46.084Z,15.88
2023-04-18T08:04:52.227Z,15.73
2023-04-18T08:07:54.884Z,15.85
2023-04-18T08:10:57.546Z,16.09
2023-04-18T08:13:59.974Z,16.09
2023-04-18T08:17:02.726Z,15.55
2023-04-18T08:20:07.535Z,15.84
2023-04-18T08:23:12.994Z,16.17
2023-04-18T08:26:15.973Z,16.06
2023-04-18T08:29:18.682Z,15.95
2023-04-18T08:32:21.059Z,16.01
2023-04-18T08:35:25.209Z,15.85
2023-04-18T08:38:27.486Z,15.89
2023-04-18T08:41:30.849Z,16.02
2023-04-18T08:44:33.317Z,15.71
2023-04-18T08:47:36.085Z,16.00
2023-04-18T08:50:40.014Z,16.32
2023-04-18T08:53:44.678Z,16.51
2023-04-18T08:56:47.852Z,16.56
2023-04-18T08:59:51.169Z,16.53
2023-04-18T09:02:57.046Z,16.50
2023-04-18T09:06:12.530Z,16.65
2023-04-18T09:09:15.193Z,16.95
2023-04-18T09:12:19.526Z,16.91
2023-04-18T09:15:23.610Z,16.82
2023-04-18T09:18:26.449Z,17.15
2023-04-18T09:21:30.255Z,17.02
2023-04-18T09:24:34.355Z,17.09
2023-04-18T09:27:36.584Z,16.85
2023-04-18T09:30:39.902Z,17.23
2023-04-18T09:33:44.878Z,17.29
2023-04-18T09:36:49.009Z,17.43
2023-04-18T09:39:51.255Z,16.85
2023-04-18T09:42:57.015Z,16.86
2023-04-18T09:46:01.049Z,17.34
2023-04-18T09:49:03.781Z,17.47
2023-04-18T09:52:07.790Z,17.13
2023-04-18T09:55:12.057Z,17.37
2023-04-18T09:58:14.826Z,17.34
2023-04-18T10:01:17.502Z,17.27
2023-04-18T10:04:20.536Z,17.57
2023-04-18T10:07:24.440Z,17.70
2023-04-18T10:10:27.158Z,17.94
2023-04-18T10:13:29.568Z,17.45
2023-04-18T10:16:34.107Z,17.39
2023-04-18T10:19:37.700Z,17.06
2023-04-18T10:22:41.730Z,17.13
2023-04-18T10:25:48.549Z,17.11
2023-04-18T10:28:53.321Z,17.38
2023-04-18T10:31:56.342Z,17.58
2023-04-18T10:35:00.580Z,17.67
2023-04-18T10:38:04.460Z,18.23
2023-04-18T10:41:17.514Z,17.79
2023-04-18T10:44:22.018Z,17.79
2023-04-18T10:47:24.949Z,17.84
2023-04-18T10:50:27.442Z,17.86
2023-04-18T10:53:31.601Z,17.92
2023-04-18T10:56:34.053Z,17.74
2023-04-18T10:59:38.112Z,17.77
2023-04-18T11:02:40.500Z,17.97
2023-04-18T11:05:43.284Z,17.99
2023-04-18T11:08:47.883Z,18.01
2023-04-18T11:12:03.362Z,17.76
2023-04-18T11:15:10.793Z,17.86
2023-04-18T11:18:13.741Z,17.58
2023-04-18T11:21:16.429Z,17.76
2023-04-18T11:24:32.877Z,17.47
2023-04-18T11:27:35.343Z,17.59
2023-04-18T11:30:38.574Z,18.00
2023-04-18T11:33:41.074Z,17.60
2023-04-18T11:36:43.762Z,17.89
2023-04-18T11:39:47.554Z,17.87
2023-04-18T11:42:50.387Z,17.92
2023-04-18T11:45:56.592Z,17.74
2023-04-18T11:48:59.342Z,17.64
2023-04-18T11:52:01.786Z,18.14
2023-04-18T11:55:13.693Z,17.92
2023-04-18T11:58:16.546Z,17.46
2023-04-18T12:01:19.669Z,17.55
2023-04-18T12:04:22.772Z,17.95
2023-04-18T12:07:38.542Z,17.96
2023-04-18T12:10:47.515Z,18.26
2023-04-18T12:13:49.987Z,18.10
2023-04-18T12:16:52.626Z,18.34
2023-04-18T12:19:55.509Z,18.41
2023-04-18T12:22:58.469Z,18.29
2023-04-18T12:26:03.710Z,18.31
2023-04-18T12:29:06.400Z,18.14
2023-04-18T12:32:08.876Z,18.14
2023-04-18T12:35:11.822Z,18.16
2023-04-18T12:38:14.346Z,17.78
2023-04-18T12:41:18.461Z,17.46
2023-04-18T12:44:20.996Z,17.55
2023-04-18T12:47:23.736Z,17.60
2023-04-18T12:50:26.480Z,17.74
2023-04-18T12:53:29.381Z,17.61
2023-04-18T12:56:33.121Z,17.49
2023-04-18T12:59:35.843Z,17.46
2023-04-18T13:02:39.088Z,17.66
2023-04-18T13:05:41.686Z,17.74
2023-04-18T13:08:44.502Z,17.62
2023-04-18T13:11:49.690Z,17.69
2023-04-18T13:14:52.082Z,17.81
2023-04-18T13:17:55.992Z,18.13
2023-04-18T13:20:58.380Z,17.78
2023-04-18T13:24:01.113Z,17.39
2023-04-18T13:27:10.296Z,17.68
2023-04-18T13:30:13.398Z,17.44
2023-04-18T13:33:15.920Z,17.52
2023-04-18T13:36:18.721Z,17.67
2023-04-18T13:39:21.611Z,18.00
2023-04-18T13:42:25.691Z,18.08
2023-04-18T13:45:27.859Z,17.80
2023-04-18T13:48:30.485Z,17.63
2023-04-18T13:51:33.252Z,17.68
2023-04-18T13:54:37.339Z,17.44
2023-04-18T13:57:41.158Z,17.48
2023-04-18T14:00:43.818Z,17.32
2023-04-18T14:03:47.517Z,17.17
2023-04-18T14:06:50.381Z,17.06
2023-04-18T14:09:54.035Z,17.21
2023-04-18T14:12:57.907Z,17.33
2023-04-18T14:16:00.995Z,17.36
2023-04-18T14:19:03.562Z,17.50
2023-04-18T14:22:07.811Z,17.48
2023-04-18T14:25:10.372Z,17.41
2023-04-18T14:28:14.599Z,17.41
2023-04-18T14:31:17.224Z,17.48
2023-04-18T14:34:19.944Z,17.48
2023-04-18T14:37:22.365Z,17.31
2023-04-18T14:40:25.123Z,17.23
2023-04-18T14:43:28.988Z,17.03
2023-04-18T14:46:31.769Z,17.15
2023-04-18T14:49:34.271Z,17.05
2023-04-18T14:52:36.941Z,16.93
2023-04-18T14:55:39.388Z,16.88
2023-04-18T14:58:43.920Z,17.03
2023-04-18T15:01:46.506Z,16.85
2023-04-18T15:04:49.912Z,16.94
2023-04-18T15:07:52.398Z,16.97
2023-04-18T15:10:55.021Z,17.04
2023-04-18T15:13:58.747Z,17.06
2023-04-18T15:17:02.864Z,16.92
2023-04-18T15:20:08.217Z,17.12
2023-04-18T15:23:13.842Z,17.19
2023-04-18T15:26:16.488Z,17.33
2023-04-18T15:29:20.891Z,17.04
2023-04-18T15:32:23.473Z,17.30
2023-04-18T15:35:26.821Z,17.51
2023-04-18T15:38:31.547Z,17.33
2023-04-18T15:41:36.226Z,17.44
2023-04-18T15:44:40.040Z,17.33
2023-04-18T15:47:42.945Z,17.34
2023-04-18T15:50:50.167Z,17.54
2023-04-18T15:53:52.852Z,17.61
2023-04-18T15:56:55.571Z,17.42
2023-04-18T15:59:59.780Z,17.49
